Time;durP1;ratioP1;P1;durP2;ratioP2;P2;SDS_P1;SDS_P2;PMS_P1;PMS_P2;Temp;Humidity;BMP_temperature;BMP_pressure;BME280_temperature;BME280_humidity;BME280_pressure;Samples;Min_cycle;Max_cycle;Signal;HPM_P1;HPM_P2
2021/09/14 00:01:48;;;;;;;34.53;31.13;;;14.10;99.90;;;;;;5029266;28;20206;-64
2021/09/14 00:04:14;;;;;;;32.90;29.70;;;14.10;99.90;;;;;;5033855;28;20638;-64
2021/09/14 00:06:40;;;;;;;31.93;28.60;;;14.10;99.90;;;;;;5002230;28;20180;-64
2021/09/14 00:09:07;;;;;;;35.83;29.43;;;14.10;99.90;;;;;;5013813;28;20200;-65
2021/09/14 00:11:34;;;;;;;34.67;29.13;;;14.10;99.90;;;;;;5025664;28;20670;-64
2021/09/14 00:14:00;;;;;;;37.47;33.50;;;14.00;99.90;;;;;;5033496;28;20225;-65
2021/09/14 00:16:26;;;;;;;35.83;32.13;;;14.00;99.90;;;;;;5022971;28;20191;-64
2021/09/14 00:18:51;;;;;;;33.23;29.77;;;14.10;99.90;;;;;;5013648;28;20204;-64
2021/09/14 00:21:17;;;;;;;30.50;27.57;;;14.10;99.90;;;;;;5022075;28;20171;-65
2021/09/14 00:23:43;;;;;;;31.50;28.30;;;14.10;99.90;;;;;;5033392;28;20175;-65
2021/09/14 00:26:08;;;;;;;33.47;29.87;;;14.10;99.90;;;;;;5025774;28;20168;-64
2021/09/14 00:28:34;;;;;;;31.97;28.57;;;14.20;99.90;;;;;;5013581;28;20232;-65
2021/09/14 00:31:00;;;;;;;32.43;28.93;;;14.10;99.90;;;;;;5018575;28;20274;-64
2021/09/14 00:33:25;;;;;;;32.83;28.97;;;14.10;99.90;;;;;;5013446;28;20211;-64
2021/09/14 00:35:51;;;;;;;30.27;27.30;;;14.10;99.90;;;;;;5013294;28;20187;-65
2021/09/14 00:38:17;;;;;;;32.80;29.27;;;14.10;99.90;;;;;;5013280;28;20195;-64
2021/09/14 00:40:42;;;;;;;39.10;30.47;;;14.10;99.90;;;;;;5032865;28;20247;-64
2021/09/14 00:43:08;;;;;;;32.47;29.07;;;14.00;99.90;;;;;;5032988;28;20736;-64
2021/09/14 00:45:33;;;;;;;33.23;29.63;;;14.10;99.90;;;;;;5014786;28;20176;-64
2021/09/14 00:47:59;;;;;;;37.30;31.60;;;14.10;99.90;;;;;;4995356;28;20642;-64
2021/09/14 00:50:25;;;;;;;36.60;31.73;;;14.10;99.90;;;;;;5016173;28;20561;-65
2021/09/14 00:52:51;;;;;;;37.30;31.40;;;14.00;99.90;;;;;;5013090;28;20187;-64
2021/09/14 00:55:17;;;;;;;36.87;33.10;;;14.00;99.90;;;;;;5027753;28;20186;-64
2021/09/14 00:57:42;;;;;;;36.77;32.23;;;14.00;99.90;;;;;;5032674;28;20167;-64
2021/09/14 01:00:08;;;;;;;37.60;33.37;;;14.00;99.90;;;;;;5018902;28;20238;-65
2021/09/14 01:02:35;;;;;;;34.07;30.20;;;13.90;99.90;;;;;;5013030;28;20532;-64
2021/09/14 01:05:01;;;;;;;37.13;33.13;;;13.90;99.90;;;;;;5024136;28;20180;-64
2021/09/14 01:07:27;;;;;;;42.00;33.97;;;14.00;99.90;;;;;;5032115;28;20167;-64
2021/09/14 01:09:54;;;;;;;37.27;30.47;;;14.00;99.90;;;;;;5022077;28;20250;-64
2021/09/14 01:12:20;;;;;;;39.40;35.20;;;13.90;99.90;;;;;;5013489;28;20180;-65
2021/09/14 01:14:54;;;;;;;37.73;32.83;;;13.90;99.90;;;;;;5021271;28;20183;-65
2021/09/14 01:17:20;;;;;;;38.17;30.33;;;13.80;99.90;;;;;;5026032;28;20184;-65
2021/09/14 01:19:47;;;;;;;33.37;29.70;;;13.80;99.90;;;;;;5012099;28;20627;-65
2021/09/14 01:22:14;;;;;;;36.13;32.23;;;13.80;99.90;;;;;;4999683;28;20587;-65
2021/09/14 01:24:41;;;;;;;39.50;34.73;;;13.70;99.90;;;;;;5032318;28;20262;-64
2021/09/14 01:27:06;;;;;;;35.33;31.07;;;13.80;99.90;;;;;;5028936;28;20176;-65
2021/09/14 01:32:16;;;;;;;43.53;33.40;;;13.70;99.90;;;;;;5016246;28;20205;-64
2021/09/14 01:34:42;;;;;;;40.97;33.07;;;13.50;99.90;;;;;;5030906;28;20176;-65
2021/09/14 01:37:08;;;;;;;37.20;32.03;;;13.50;99.90;;;;;;5011453;28;20184;-65
2021/09/14 01:39:33;;;;;;;41.57;34.50;;;13.40;99.90;;;;;;5010705;28;20665;-65
2021/09/14 01:41:59;;;;;;;41.60;34.83;;;13.30;99.90;;;;;;5012483;28;20173;-65
2021/09/14 01:44:24;;;;;;;46.93;35.20;;;13.30;99.90;;;;;;5031831;28;20194;-64
2021/09/14 01:46:52;;;;;;;48.37;36.80;;;13.30;99.90;;;;;;5027347;28;20238;-65
2021/09/14 01:49:17;;;;;;;50.60;42.10;;;13.30;99.90;;;;;;5011892;28;20203;-64
2021/09/14 01:51:43;;;;;;;50.03;38.73;;;13.20;99.90;;;;;;5013070;28;20216;-64
2021/09/14 01:54:09;;;;;;;51.97;37.10;;;13.30;99.90;;;;;;5011739;28;20540;-64
2021/09/14 01:56:35;;;;;;;48.83;36.33;;;13.30;99.90;;;;;;5014257;28;20187;-64
2021/09/14 01:59:01;;;;;;;48.40;37.17;;;13.20;99.90;;;;;;5031441;28;20211;-65
2021/09/14 02:01:31;;;;;;;47.37;38.63;;;13.20;99.90;;;;;;5028412;28;20652;-65
2021/09/14 02:04:01;;;;;;;66.47;59.97;;;13.20;99.90;;;;;;5031385;28;20287;-64
2021/09/14 02:06:53;;;;;;;47.60;38.20;;;13.20;99.90;;;;;;5022438;28;20693;-64
2021/09/14 03:01:08;;;;;;;60.10;44.90;;;13.00;99.90;;;;;;4992347;28;20228;-68
2021/09/14 03:03:35;;;;;;;57.93;44.00;;;13.00;99.90;;;;;;4993952;28;20169;-69
2021/09/14 03:06:01;;;;;;;64.17;45.20;;;13.00;99.90;;;;;;5032003;28;20226;-69
2021/09/14 03:08:27;;;;;;;59.73;45.33;;;12.90;99.90;;;;;;5031998;28;20633;-67
2021/09/14 03:10:53;;;;;;;57.27;41.90;;;12.90;99.90;;;;;;5014828;28;20215;-67
2021/09/14 03:13:19;;;;;;;53.40;39.43;;;12.90;99.90;;;;;;5023910;28;20176;-68
2021/09/14 03:15:44;;;;;;;61.83;41.80;;;12.80;99.90;;;;;;5012279;28;20168;-69
2021/09/14 03:18:10;;;;;;;52.90;42.10;;;12.80;99.90;;;;;;5018293;28;20172;-67
2021/09/14 03:20:36;;;;;;;46.03;38.77;;;12.80;99.90;;;;;;5013866;28;20199;-69
2021/09/14 03:23:02;;;;;;;57.30;45.20;;;12.80;99.90;;;;;;5026821;28;20188;-68
2021/09/14 03:25:28;;;;;;;46.20;36.53;;;12.80;99.90;;;;;;5012006;28;20165;-68
2021/09/14 03:27:54;;;;;;;50.60;37.37;;;12.70;99.90;;;;;;5014952;28;20172;-69
2021/09/14 03:30:19;;;;;;;47.70;36.43;;;12.60;99.90;;;;;;5034065;28;20257;-67
2021/09/14 03:32:45;;;;;;;50.10;36.07;;;12.70;99.90;;;;;;5033606;28;20175;-70
2021/09/14 03:35:11;;;;;;;54.60;38.07;;;12.70;99.90;;;;;;5032165;28;20196;-69
2021/09/14 03:37:37;;;;;;;52.67;37.90;;;12.60;99.90;;;;;;5034988;28;20187;-69
2021/09/14 03:40:03;;;;;;;46.67;35.03;;;12.60;99.90;;;;;;5000199;28;20207;-67
2021/09/14 03:42:29;;;;;;;56.50;37.80;;;12.60;99.90;;;;;;5023844;28;20192;-70
2021/09/14 03:44:54;;;;;;;51.97;39.07;;;12.60;99.90;;;;;;5015017;28;20167;-69
2021/09/14 03:47:20;;;;;;;52.17;37.83;;;12.50;99.90;;;;;;5014138;28;20179;-69
2021/09/14 03:49:45;;;;;;;52.07;39.30;;;12.50;99.90;;;;;;5034397;28;20550;-64
2021/09/14 03:52:11;;;;;;;52.97;37.70;;;12.50;99.90;;;;;;5018716;28;20215;-64
2021/09/14 03:54:37;;;;;;;54.87;37.90;;;12.50;99.90;;;;;;5016566;28;20176;-64
2021/09/14 03:57:02;;;;;;;51.17;37.30;;;12.50;99.90;;;;;;5033876;28;20187;-64
2021/09/14 03:59:28;;;;;;;58.67;42.23;;;12.50;99.90;;;;;;5028532;28;20399;-65
2021/09/14 04:01:57;;;;;;;53.97;40.63;;;12.40;99.90;;;;;;5033631;28;20175;-64
2021/09/14 04:07:26;;;;;;;52.10;40.93;;;12.50;99.90;;;;;;4943805;28;20661;-64
2021/09/14 04:09:52;;;;;;;49.80;39.10;;;12.40;99.90;;;;;;5014409;28;20192;-65
2021/09/14 04:12:17;;;;;;;58.40;43.37;;;12.40;99.90;;;;;;5014003;28;20184;-64
2021/09/14 04:14:43;;;;;;;59.60;44.43;;;12.50;99.90;;;;;;5019115;28;20256;-64
2021/09/14 04:17:10;;;;;;;64.93;43.63;;;12.50;99.90;;;;;;5032411;28;20641;-64
2021/09/14 04:19:36;;;;;;;54.13;43.87;;;12.50;99.90;;;;;;5013482;28;20633;-64
2021/09/14 04:22:02;;;;;;;57.57;44.03;;;12.40;99.90;;;;;;5013455;28;20255;-64
2021/09/14 04:24:27;;;;;;;57.23;43.80;;;12.40;99.90;;;;;;5017923;28;20180;-64
2021/09/14 04:26:53;;;;;;;63.23;48.20;;;12.40;99.90;;;;;;5013592;28;20227;-64
2021/09/14 04:29:19;;;;;;;67.83;45.83;;;12.40;99.90;;;;;;5030489;28;20204;-64
2021/09/14 04:31:44;;;;;;;63.33;43.30;;;12.40;99.90;;;;;;5033344;28;20250;-64
2021/09/14 04:34:10;;;;;;;65.77;42.50;;;12.40;99.90;;;;;;5017231;28;20207;-64
2021/09/14 04:36:35;;;;;;;58.60;44.60;;;12.50;99.90;;;;;;5028084;28;20175;-64
2021/09/14 04:39:01;;;;;;;63.90;50.23;;;12.50;99.90;;;;;;5013159;28;20270;-64
2021/09/14 04:41:27;;;;;;;74.67;52.00;;;12.50;99.90;;;;;;5014405;28;20180;-64
2021/09/14 04:43:52;;;;;;;62.30;43.07;;;12.50;99.90;;;;;;5032870;28;20259;-64
2021/09/14 04:46:18;;;;;;;68.20;44.93;;;12.60;99.90;;;;;;5032164;28;20175;-64
2021/09/14 04:48:43;;;;;;;61.40;40.07;;;12.60;99.90;;;;;;5013237;28;20647;-64
2021/09/14 04:51:09;;;;;;;65.87;42.47;;;12.60;99.90;;;;;;5012854;28;20214;-64
2021/09/14 04:53:34;;;;;;;66.50;42.63;;;12.50;99.90;;;;;;5031758;28;20182;-64
2021/09/14 04:56:00;;;;;;;69.27;47.80;;;12.60;99.90;;;;;;5032660;28;20260;-63
2021/09/14 04:58:29;;;;;;;72.17;48.67;;;12.50;99.90;;;;;;5015488;28;20681;-70
2021/09/14 05:00:54;;;;;;;70.00;54.70;;;12.50;99.90;;;;;;5026947;28;20583;-64
2021/09/14 05:03:20;;;;;;;74.80;47.33;;;12.40;99.90;;;;;;5032950;28;20318;-64
2021/09/14 05:05:45;;;;;;;80.50;49.53;;;12.40;99.90;;;;;;5029662;28;20636;-64
2021/09/14 05:08:11;;;;;;;80.57;51.43;;;12.50;99.90;;;;;;5032320;28;20250;-64
2021/09/14 05:10:37;;;;;;;84.80;48.47;;;12.50;99.90;;;;;;5015646;28;20192;-64
2021/09/14 05:13:04;;;;;;;74.83;46.57;;;12.60;99.90;;;;;;5012841;28;20179;-64
2021/09/14 05:15:30;;;;;;;72.10;45.07;;;12.70;99.90;;;;;;5027629;28;20274;-64
2021/09/14 05:17:55;;;;;;;75.50;49.70;;;12.80;99.90;;;;;;5014528;28;20579;-64
2021/09/14 05:20:21;;;;;;;72.80;48.03;;;12.80;99.90;;;;;;5026552;28;20623;-64
2021/09/14 05:22:52;;;;;;;72.17;46.57;;;12.80;99.90;;;;;;5032370;28;20175;-64
2021/09/14 05:25:18;;;;;;;76.90;47.23;;;12.80;99.90;;;;;;5014740;28;20271;-64
2021/09/14 05:27:43;;;;;;;66.37;46.03;;;12.80;99.90;;;;;;5012470;28;20263;-64
2021/09/14 05:30:10;;;;;;;71.27;45.67;;;12.80;99.90;;;;;;5027252;28;20238;-64
2021/09/14 05:32:35;;;;;;;73.10;47.53;;;12.90;99.90;;;;;;5032336;28;20175;-64
2021/09/14 05:35:01;;;;;;;71.87;45.13;;;13.00;99.90;;;;;;5017803;28;20194;-64
2021/09/14 05:37:26;;;;;;;69.17;45.60;;;13.00;99.90;;;;;;5012468;28;20182;-64
2021/09/14 05:39:52;;;;;;;65.30;44.63;;;13.20;99.90;;;;;;5023521;28;20218;-64
2021/09/14 05:42:18;;;;;;;64.00;45.17;;;13.30;99.90;;;;;;5031942;28;20163;-64
2021/09/14 05:44:43;;;;;;;63.73;42.43;;;13.50;99.90;;;;;;5021588;28;20221;-64
2021/09/14 05:47:09;;;;;;;56.67;41.57;;;13.60;99.90;;;;;;5012403;28;20168;-64
2021/09/14 05:49:34;;;;;;;55.70;40.87;;;13.70;99.90;;;;;;5030881;28;20238;-63
2021/09/14 05:52:00;;;;;;;57.47;40.50;;;13.80;99.90;;;;;;5016518;28;20183;-64
2021/09/14 05:54:26;;;;;;;48.37;38.60;;;13.90;99.90;;;;;;5014577;28;20183;-64
2021/09/14 05:56:52;;;;;;;44.80;36.17;;;14.00;99.90;;;;;;5020348;28;20175;-64
2021/09/14 05:59:17;;;;;;;44.63;39.83;;;14.10;99.90;;;;;;5026861;28;20291;-64
2021/09/14 06:01:43;;;;;;;42.93;35.87;;;14.20;99.90;;;;;;5011843;28;20172;-64
2021/09/14 06:04:09;;;;;;;41.67;33.33;;;14.30;99.90;;;;;;4996986;28;20230;-64
2021/09/14 06:06:34;;;;;;;45.77;37.60;;;14.40;99.90;;;;;;5013955;28;20535;-65
2021/09/14 06:09:00;;;;;;;34.67;30.43;;;14.40;99.90;;;;;;5023972;28;20204;-64
2021/09/14 06:11:26;;;;;;;35.93;30.67;;;14.40;99.90;;;;;;5011551;28;20176;-64
2021/09/14 06:13:51;;;;;;;33.47;27.93;;;14.60;99.90;;;;;;5016564;28;20186;-64
2021/09/14 06:16:17;;;;;;;31.50;27.93;;;14.60;99.90;;;;;;5031344;28;20174;-64
2021/09/14 06:18:43;;;;;;;30.77;27.40;;;14.70;99.90;;;;;;5027555;28;20200;-64
2021/09/14 06:21:10;;;;;;;30.37;26.43;;;14.70;99.90;;;;;;5011220;28;20664;-64
2021/09/14 06:23:35;;;;;;;28.00;24.63;;;14.70;99.90;;;;;;5013137;28;20653;-64
2021/09/14 06:26:01;;;;;;;27.27;24.40;;;14.80;99.90;;;;;;5031107;28;20202;-64
2021/09/14 06:28:27;;;;;;;25.43;22.83;;;14.90;99.90;;;;;;5031007;28;20171;-64
2021/09/14 06:30:52;;;;;;;26.83;24.27;;;15.10;99.90;;;;;;5011307;28;20176;-64
2021/09/14 06:33:18;;;;;;;25.20;22.67;;;15.20;99.90;;;;;;5020762;28;20186;-64
2021/09/14 06:35:44;;;;;;;23.80;20.90;;;15.40;99.90;;;;;;5031601;28;20171;-64
2021/09/14 06:38:09;;;;;;;27.43;20.60;;;15.60;99.90;;;;;;5023045;28;20191;-64
2021/09/14 06:40:35;;;;;;;21.37;19.27;;;15.70;99.90;;;;;;4993484;28;20250;-64
2021/09/14 06:43:00;;;;;;;20.83;18.63;;;15.90;99.90;;;;;;5016902;28;20540;-64
2021/09/14 06:45:26;;;;;;;21.10;19.00;;;16.10;99.90;;;;;;5031490;28;20168;-64
2021/09/14 06:47:52;;;;;;;24.50;18.97;;;16.30;99.90;;;;;;5027111;28;20173;-64
2021/09/14 06:50:21;;;;;;;19.87;17.87;;;16.40;99.90;;;;;;5010238;28;20558;-64
2021/09/14 06:52:48;;;;;;;19.77;17.87;;;16.70;99.90;;;;;;5013987;28;20195;-65
2021/09/14 06:55:15;;;;;;;19.63;17.63;;;16.90;99.90;;;;;;5011387;28;20200;-65
2021/09/14 06:57:41;;;;;;;17.77;16.20;;;17.20;99.90;;;;;;5012175;28;20180;-65
2021/09/14 07:00:08;;;;;;;19.50;17.60;;;17.40;99.90;;;;;;5021453;28;20235;-66
2021/09/14 07:02:34;;;;;;;19.10;17.23;;;17.60;99.90;;;;;;5021774;28;20546;-65
2021/09/14 07:04:59;;;;;;;24.60;17.10;;;17.70;99.90;;;;;;5033161;28;20172;-64
2021/09/14 07:07:25;;;;;;;17.90;15.93;;;17.80;99.90;;;;;;5025324;28;20187;-64
2021/09/14 07:09:51;;;;;;;16.53;14.90;;;18.00;99.90;;;;;;5014575;28;20657;-65
2021/09/14 07:12:16;;;;;;;18.27;16.47;;;18.00;99.90;;;;;;5021276;28;20194;-65
2021/09/14 07:14:42;;;;;;;16.10;14.60;;;18.00;99.90;;;;;;5034550;28;20176;-64
2021/09/14 07:17:09;;;;;;;22.13;15.67;;;18.20;99.90;;;;;;5029165;28;20188;-64
2021/09/14 07:19:34;;;;;;;15.80;13.87;;;18.40;99.90;;;;;;5031049;28;20228;-64
2021/09/14 07:22:00;;;;;;;15.13;13.63;;;18.50;99.90;;;;;;5029605;28;20193;-65
2021/09/14 07:24:26;;;;;;;15.83;14.20;;;18.80;99.90;;;;;;5014597;28;20638;-64
2021/09/14 07:26:51;;;;;;;16.20;14.00;;;19.00;99.90;;;;;;5015942;28;20176;-64
2021/09/14 07:29:17;;;;;;;15.77;13.70;;;19.30;99.90;;;;;;5028296;28;20665;-64
2021/09/14 07:31:44;;;;;;;14.30;12.90;;;19.40;99.90;;;;;;5022445;28;20238;-64
2021/09/14 07:34:10;;;;;;;14.80;13.33;;;19.40;99.90;;;;;;5014190;28;20175;-64
2021/09/14 07:36:35;;;;;;;15.30;13.80;;;19.40;99.90;;;;;;5018761;28;20267;-64
2021/09/14 07:39:01;;;;;;;15.93;14.43;;;19.30;99.90;;;;;;5033393;28;20203;-64
2021/09/14 07:41:27;;;;;;;15.33;13.67;;;19.40;99.90;;;;;;5032215;28;20186;-65
2021/09/14 07:43:52;;;;;;;13.97;12.67;;;19.70;99.90;;;;;;5032414;28;20175;-65
2021/09/14 07:46:18;;;;;;;12.33;11.13;;;20.00;99.90;;;;;;5033860;28;20171;-65
2021/09/14 07:48:43;;;;;;;13.40;12.17;;;20.30;99.90;;;;;;5033589;28;20187;-64
2021/09/14 07:51:09;;;;;;;10.83;9.70;;;20.60;99.90;;;;;;5033609;28;20607;-64
2021/09/14 07:53:35;;;;;;;10.80;9.70;;;20.80;99.90;;;;;;5034133;28;20180;-64
2021/09/14 07:56:00;;;;;;;9.93;9.07;;;21.20;99.90;;;;;;5033608;28;20229;-64
2021/09/14 07:58:26;;;;;;;10.38;9.23;;;21.60;99.90;;;;;;5033832;28;20179;-65
2021/09/14 08:00:52;;;;;;;39.70;10.30;;;22.20;99.90;;;;;;5027735;28;20204;-65
2021/09/14 08:03:17;;;;;;;11.32;7.97;;;22.60;99.90;;;;;;5013895;28;20653;-65
2021/09/14 08:05:43;;;;;;;9.25;8.40;;;22.90;99.90;;;;;;5013839;28;20184;-65
2021/09/14 08:08:08;;;;;;;9.23;8.32;;;23.10;99.90;;;;;;5013873;28;20180;-64
2021/09/14 08:10:37;;;;;;;8.65;7.95;;;23.50;99.90;;;;;;5013594;28;20255;-64
2021/09/14 08:13:03;;;;;;;9.05;7.70;;;23.80;99.90;;;;;;5013655;28;20551;-64
2021/09/14 08:15:29;;;;;;;10.68;7.95;;;24.00;99.90;;;;;;5013630;28;20176;-65
2021/09/14 08:17:55;;;;;;;8.65;7.85;;;24.30;99.90;;;;;;5013666;28;20168;-64
2021/09/14 08:20:21;;;;;;;7.82;7.13;;;24.40;99.90;;;;;;4995674;28;20262;-64
2021/09/14 08:22:46;;;;;;;12.13;8.23;;;24.60;99.90;;;;;;5013705;28;20260;-64
2021/09/14 08:25:13;;;;;;;9.27;8.48;;;24.50;99.90;;;;;;5013577;28;20195;-65
2021/09/14 08:27:41;;;;;;;9.65;7.70;;;24.10;99.90;;;;;;5024244;28;20180;-64
2021/09/14 08:30:07;;;;;;;8.55;7.75;;;24.10;99.90;;;;;;5014113;28;20242;-65
2021/09/14 08:32:32;;;;;;;9.82;7.72;;;24.20;99.90;;;;;;5011159;28;20203;-65
2021/09/14 08:34:58;;;;;;;8.55;7.78;;;24.30;99.90;;;;;;5013275;28;20210;-66
2021/09/14 08:37:23;;;;;;;8.93;8.07;;;24.30;99.90;;;;;;5030540;28;20214;-64
2021/09/14 08:39:49;;;;;;;8.77;7.72;;;24.60;99.90;;;;;;5032704;28;20207;-65
2021/09/14 08:42:15;;;;;;;14.45;7.78;;;24.90;99.90;;;;;;5026749;28;20191;-65
2021/09/14 08:44:42;;;;;;;9.15;8.10;;;25.10;99.90;;;;;;5013298;28;20192;-65
2021/09/14 08:47:08;;;;;;;12.35;7.60;;;25.10;99.90;;;;;;5017854;28;20183;-65
2021/09/14 08:49:35;;;;;;;8.85;8.00;;;25.00;99.90;;;;;;5032808;28;20653;-65
2021/09/14 08:52:01;;;;;;;8.40;7.70;;;25.00;99.90;;;;;;5029339;28;20223;-65
2021/09/14 08:54:27;;;;;;;9.68;8.07;;;25.10;99.90;;;;;;5012969;28;20199;-66
2021/09/14 08:56:52;;;;;;;8.20;7.60;;;25.40;99.90;;;;;;5029753;28;20645;-65
2021/09/14 08:59:30;;;;;;;9.20;7.82;;;25.60;99.90;;;;;;5032123;28;20214;-65
2021/09/14 09:02:06;;;;;;;8.35;7.65;;;25.50;99.90;;;;;;5013797;28;20176;-65
2021/09/14 09:04:32;;;;;;;8.38;7.05;;;25.60;99.90;;;;;;5012413;28;20172;-66
2021/09/14 09:06:58;;;;;;;9.60;7.55;;;25.70;99.90;;;;;;5029994;28;20207;-65
2021/09/14 09:09:26;;;;;;;8.85;8.00;;;25.70;99.90;;;;;;5032267;28;20680;-65
2021/09/14 09:12:03;;;;;;;9.48;6.97;;;25.70;99.90;;;;;;5016358;28;20223;-65
2021/09/14 09:14:47;;;;;;;8.13;7.43;;;25.80;99.90;;;;;;5011994;28;20172;-66
2021/09/14 09:17:15;;;;;;;8.05;7.35;;;26.00;99.90;;;;;;5030163;28;20214;-66
2021/09/14 09:19:44;;;;;;;8.30;7.03;;;26.30;99.90;;;;;;5031987;28;20203;-65
2021/09/14 09:22:13;;;;;;;7.50;6.90;;;26.50;99.90;;;;;;5012678;28;20191;-65
2021/09/14 09:24:46;;;;;;;8.90;6.93;;;26.40;99.90;;;;;;5012529;28;20181;-65
2021/09/14 09:27:14;;;;;;;7.75;7.05;;;26.20;99.90;;;;;;5030029;28;20186;-65
2021/09/14 09:29:40;;;;;;;7.68;6.88;;;26.30;99.90;;;;;;5031867;28;20680;-64
2021/09/14 09:32:06;;;;;;;7.18;6.47;;;26.50;99.90;;;;;;5030227;28;20183;-65
2021/09/14 09:34:32;;;;;;;10.32;7.75;;;26.50;99.90;;;;;;5032029;28;20175;-65
2021/09/14 09:37:08;;;;;;;7.15;6.65;;;26.40;99.90;;;;;;5016349;28;20282;-65
2021/09/14 09:39:45;;;;;;;11.18;7.57;;;26.70;99.90;;;;;;5011817;28;20222;-65
2021/09/14 09:42:11;;;;;;;7.40;6.80;;;26.90;99.90;;;;;;5012965;28;20267;-66
2021/09/14 09:44:38;;;;;;;7.60;6.32;;;27.20;99.90;;;;;;5012177;28;20199;-65
2021/09/14 09:47:04;;;;;;;12.23;6.85;;;27.30;99.90;;;;;;5026683;28;20245;-65
2021/09/14 09:49:30;;;;;;;7.90;6.95;;;27.70;99.90;;;;;;5028698;28;20613;-65
2021/09/14 09:51:59;;;;;;;8.57;7.03;;;28.10;99.90;;;;;;5013032;28;20230;-65
2021/09/14 09:54:25;;;;;;;7.30;6.70;;;28.50;99.90;;;;;;5030733;28;20539;-66
2021/09/14 09:56:52;;;;;;;7.32;6.72;;;28.70;99.90;;;;;;5031316;28;20172;-65
2021/09/14 09:59:18;;;;;;;9.65;8.60;;;28.30;99.90;;;;;;5011372;28;20260;-65
2021/09/14 10:02:02;;;;;;;8.27;7.47;;;27.90;99.90;;;;;;5011881;28;20169;-65
2021/09/14 10:04:29;;;;;;;13.35;7.80;;;28.30;99.90;;;;;;4992154;28;20647;-66
2021/09/14 10:06:57;;;;;;;8.57;6.88;;;28.40;99.90;;;;;;4992688;28;20209;-65
2021/09/14 10:09:32;;;;;;;9.27;6.97;;;28.70;99.90;;;;;;5031266;28;20191;-65
2021/09/14 10:11:58;;;;;;;7.80;7.03;;;28.80;99.90;;;;;;5031831;28;20202;-65
2021/09/14 10:14:24;;;;;;;8.07;6.88;;;28.60;99.90;;;;;;5011997;28;20219;-65
2021/09/14 10:16:50;;;;;;;7.22;6.53;;;28.70;99.90;;;;;;5026284;28;20183;-65
2021/09/14 10:19:31;;;;;;;9.38;7.05;;;28.40;99.90;;;;;;5031374;28;20215;-65
2021/09/14 10:22:05;;;;;;;7.88;7.07;;;28.30;99.90;;;;;;4998069;28;20237;-66
2021/09/14 10:24:33;;;;;;;9.68;6.68;;;28.50;99.90;;;;;;5011672;28;20524;-66
2021/09/14 10:27:08;;;;;;;8.20;7.47;;;28.70;99.90;;;;;;5026279;28;20202;-65
2021/09/14 10:29:35;;;;;;;7.57;6.88;;;28.80;99.90;;;;;;5031096;28;20187;-65
2021/09/14 10:32:03;;;;;;;9.20;6.95;;;28.80;99.90;;;;;;5016121;28;20184;-66
2021/09/14 10:34:28;;;;;;;8.55;6.97;;;29.10;99.90;;;;;;5011762;28;20258;-64
2021/09/14 10:37:05;;;;;;;9.20;7.38;;;29.30;99.90;;;;;;5025827;28;20650;-65
2021/09/14 10:39:43;;;;;;;15.77;7.97;;;29.60;99.90;;;;;;5013749;28;20281;-66
2021/09/14 10:42:20;;;;;;;21.75;6.43;;;30.00;99.90;;;;;;5030609;28;20274;-65
2021/09/14 10:44:49;;;;;;;7.60;6.20;;;30.20;99.90;;;;;;5012914;28;20246;-65
2021/09/14 10:47:18;;;;;;;7.55;6.85;;;29.80;99.90;;;;;;5015465;28;20594;-64
2021/09/14 10:49:51;;;;;;;9.15;6.72;;;29.60;99.90;;;;;;5016252;28;20226;-65
2021/09/14 10:52:30;;;;;;;7.53;6.93;;;29.30;99.90;;;;;;5015195;28;20264;-66
2021/09/14 10:54:56;;;;;;;9.25;7.35;;;29.30;99.90;;;;;;5019372;28;20186;-66
2021/09/14 10:57:31;;;;;;;7.90;6.95;;;29.30;99.90;;;;;;5034755;28;20175;-66
2021/09/14 10:59:57;;;;;;;8.55;7.15;;;28.90;99.90;;;;;;5080694;23;20227;-67
2021/09/14 11:02:26;;;;;;;12.15;7.60;;;28.50;99.90;;;;;;5034794;28;20178;-67
2021/09/14 11:04:52;;;;;;;9.10;8.23;;;28.00;99.90;;;;;;5046659;28;20244;-67
2021/09/14 11:07:20;;;;;;;8.13;7.18;;;28.10;99.90;;;;;;5054781;28;20170;-68
2021/09/14 11:09:55;;;;;;;9.25;6.93;;;28.20;99.90;;;;;;5043535;28;20204;-67
2021/09/14 11:12:26;;;;;;;7.40;6.80;;;28.20;99.90;;;;;;5032868;28;20187;-67
2021/09/14 11:14:53;;;;;;;7.22;6.45;;;28.60;99.90;;;;;;5035839;28;20179;-67
2021/09/14 11:17:37;;;;;;;12.63;6.68;;;28.90;99.90;;;;;;5034647;28;20179;-67
2021/09/14 11:20:15;;;;;;;8.88;6.80;;;29.00;99.90;;;;;;5046034;28;20219;-67
2021/09/14 11:22:42;;;;;;;12.55;7.15;;;29.30;99.90;;;;;;5042068;28;20175;-67
2021/09/14 11:25:22;;;;;;;7.72;6.93;;;29.80;99.90;;;;;;5034537;28;20172;-68
2021/09/14 11:27:59;;;;;;;7.43;6.10;;;30.30;99.90;;;;;;5035044;28;20181;-66
2021/09/14 11:30:26;;;;;;;8.38;7.35;;;30.30;99.90;;;;;;5034308;28;20661;-66
2021/09/14 11:32:53;;;;;;;7.45;6.43;;;30.50;99.90;;;;;;5046622;28;20663;-67
2021/09/14 11:35:19;;;;;;;7.93;6.55;;;30.90;99.90;;;;;;5053109;28;20182;-66
2021/09/14 11:37:57;;;;;;;8.30;7.25;;;31.10;99.90;;;;;;5042748;28;20195;-67
2021/09/14 11:40:22;;;;;;;11.23;7.13;;;31.00;99.90;;;;;;5033821;28;20568;-66
2021/09/14 11:43:02;;;;;;;8.18;6.97;;;30.90;99.90;;;;;;5035339;28;20187;-67
2021/09/14 11:45:30;;;;;;;9.95;6.03;;;30.90;99.90;;;;;;5034310;28;20176;-66
2021/09/14 11:47:57;;;;;;;8.50;6.40;;;31.00;99.90;;;;;;5045412;28;20182;-67
2021/09/14 11:50:28;;;;;;;7.82;7.13;;;30.90;99.90;;;;;;5052843;28;20277;-66
2021/09/14 11:53:10;;;;;;;10.80;7.45;;;30.60;99.90;;;;;;5043041;28;20187;-67
2021/09/14 11:55:44;;;;;;;7.97;6.97;;;30.30;99.90;;;;;;5033971;28;20179;-67
2021/09/14 11:58:09;;;;;;;8.55;6.30;;;30.40;99.90;;;;;;5045907;28;20185;-67
2021/09/14 12:00:40;;;;;;;8.73;6.53;;;30.20;99.90;;;;;;5044669;28;20207;-66
2021/09/14 12:03:06;;;;;;;9.32;6.88;;;30.00;99.90;;;;;;5033914;28;20159;-67
2021/09/14 12:05:33;;;;;;;7.40;6.85;;;29.30;99.90;;;;;;5040960;28;20171;-67
2021/09/14 12:08:00;;;;;;;7.70;7.00;;;29.20;99.90;;;;;;5053585;28;20178;-67
2021/09/14 12:10:27;;;;;;;7.07;6.55;;;28.90;99.90;;;;;;5046923;28;20195;-67
2021/09/14 12:12:54;;;;;;;6.85;6.25;;;28.50;99.90;;;;;;5033900;28;20559;-67
2021/09/14 12:15:21;;;;;;;7.82;6.88;;;28.30;99.90;;;;;;5045905;28;20186;-67
2021/09/14 12:17:48;;;;;;;8.63;6.40;;;28.30;99.90;;;;;;5053576;28;20203;-67
2021/09/14 12:20:15;;;;;;;8.70;6.85;;;28.40;99.90;;;;;;5041403;28;20211;-66
2021/09/14 12:22:41;;;;;;;7.15;6.47;;;28.40;99.90;;;;;;5033665;28;20170;-67
2021/09/14 12:25:07;;;;;;;14.15;6.45;;;28.40;99.90;;;;;;5043983;28;20183;-67
2021/09/14 12:27:32;;;;;;;6.95;6.25;;;28.20;99.90;;;;;;5053270;28;20174;-67
2021/09/14 12:29:58;;;;;;;8.38;7.70;;;28.00;99.90;;;;;;5036943;28;20570;-67
2021/09/14 12:32:23;;;;;;;9.82;9.02;;;27.90;99.90;;;;;;5033148;28;20188;-67
2021/09/14 12:34:49;;;;;;;8.63;7.90;;;27.90;99.90;;;;;;5033103;28;20195;-67
2021/09/14 12:37:15;;;;;;;8.43;7.53;;;27.90;99.90;;;;;;5033242;28;20267;-67
2021/09/14 12:39:41;;;;;;;7.63;6.93;;;27.80;99.90;;;;;;5047045;28;20240;-67
2021/09/14 12:42:07;;;;;;;9.85;7.10;;;27.60;99.90;;;;;;5052934;28;20175;-67
2021/09/14 12:44:32;;;;;;;7.28;6.60;;;27.50;99.90;;;;;;5039894;28;20656;-66
2021/09/14 12:46:58;;;;;;;8.30;6.93;;;27.50;99.90;;;;;;5033002;28;20262;-67
2021/09/14 12:49:24;;;;;;;7.65;6.93;;;27.60;99.90;;;;;;5033379;28;20238;-68
2021/09/14 12:51:50;;;;;;;7.40;6.72;;;27.80;99.90;;;;;;5032826;28;20203;-67
2021/09/14 12:54:16;;;;;;;10.60;6.75;;;27.60;99.90;;;;;;5042013;28;20229;-67
2021/09/14 12:56:42;;;;;;;7.32;6.72;;;27.80;99.90;;;;;;5051475;28;20179;-67
2021/09/14 12:59:08;;;;;;;7.72;6.63;;;27.80;99.90;;;;;;5044331;28;20211;-68
2021/09/14 13:01:34;;;;;;;8.82;7.30;;;27.90;99.90;;;;;;5035351;28;20179;-66
2021/09/14 13:04:00;;;;;;;7.35;6.68;;;28.00;99.90;;;;;;5052450;28;20533;-67
2021/09/14 13:06:25;;;;;;;8.15;7.43;;;27.90;99.90;;;;;;5049995;28;20182;-67
2021/09/14 13:08:51;;;;;;;10.95;7.18;;;27.90;99.90;;;;;;5033610;28;20195;-66
2021/09/14 13:11:17;;;;;;;7.38;6.78;;;28.00;99.90;;;;;;5032451;28;20171;-68
2021/09/14 13:16:27;;;;;;;8.18;6.70;;;28.20;99.90;;;;;;5013033;28;20599;-68
2021/09/14 13:18:53;;;;;;;7.40;6.25;;;28.40;99.90;;;;;;5012964;28;20192;-67
2021/09/14 13:21:21;;;;;;;7.40;6.70;;;28.60;99.90;;;;;;5044836;28;20297;-66
2021/09/14 13:23:51;;;;;;;7.80;6.53;;;28.70;99.90;;;;;;5032405;28;20175;-66
2021/09/14 13:26:17;;;;;;;7.85;7.18;;;29.00;99.90;;;;;;5051480;28;20675;-66
2021/09/14 13:28:43;;;;;;;6.95;6.03;;;29.00;99.90;;;;;;5048873;28;20214;-65
2021/09/14 13:31:09;;;;;;;7.47;6.90;;;29.00;99.90;;;;;;5048915;28;20725;-66
2021/09/14 13:33:35;;;;;;;7.93;7.30;;;29.00;99.90;;;;;;5052204;28;20301;-67
2021/09/14 13:36:02;;;;;;;10.77;6.75;;;28.80;99.90;;;;;;5035813;28;20230;-65